Time;durP1;ratioP1;P1;durP2;ratioP2;P2;SDS_P1;SDS_P2;PMS_P1;PMS_P2;Temp;Humidity;BMP_temperature;BMP_pressure;BME280_temperature;BME280_humidity;BME280_pressure;Samples;Min_cycle;Max_cycle;Signal;HPM_P1;HPM_P2
2023/08/17 00:02:05;;;;;;;8.95;3.13;;;16.60;99.90;;;;;;7372706;19;20369;-69
2023/08/17 00:04:31;;;;;;;7.57;2.15;;;16.60;99.90;;;;;;7374387;19;20759;-68
2023/08/17 00:06:57;;;;;;;7.57;2.80;;;16.50;99.90;;;;;;7373394;19;20680;-68
2023/08/17 00:09:24;;;;;;;7.05;2.80;;;16.50;99.90;;;;;;7374983;19;20081;-68
2023/08/17 00:11:50;;;;;;;4.80;2.72;;;16.50;99.90;;;;;;7372854;19;20404;-68
2023/08/17 00:14:16;;;;;;;5.47;2.75;;;16.50;99.90;;;;;;7375114;19;20022;-68
2023/08/17 00:16:42;;;;;;;5.45;2.40;;;16.50;99.90;;;;;;7364468;19;20030;-68
2023/08/17 00:19:09;;;;;;;11.63;3.85;;;16.50;99.90;;;;;;7375440;19;20481;-69
2023/08/17 00:21:35;;;;;;;6.00;2.85;;;16.40;99.90;;;;;;7376529;19;20050;-59
2023/08/17 00:24:02;;;;;;;5.70;3.30;;;16.40;99.90;;;;;;7374074;19;20022;-58
2023/08/17 00:26:28;;;;;;;9.30;2.65;;;16.40;99.90;;;;;;7375741;19;20478;-59
2023/08/17 00:28:54;;;;;;;7.75;3.47;;;16.30;99.90;;;;;;7375675;19;20096;-69
2023/08/17 00:31:21;;;;;;;5.25;2.65;;;16.30;99.90;;;;;;7375304;19;20018;-67
2023/08/17 00:33:47;;;;;;;6.93;3.05;;;16.30;99.90;;;;;;7376026;19;20039;-68
2023/08/17 00:36:13;;;;;;;8.25;2.72;;;16.30;99.90;;;;;;7370898;19;20461;-68
2023/08/17 00:38:40;;;;;;;6.97;3.10;;;16.20;99.90;;;;;;7372533;19;20015;-68
2023/08/17 00:41:07;;;;;;;9.02;3.20;;;16.30;99.90;;;;;;7373999;19;20617;-68
2023/08/17 00:43:33;;;;;;;10.70;3.60;;;16.30;99.90;;;;;;7374476;19;20353;-69
2023/08/17 00:46:00;;;;;;;9.68;3.13;;;16.20;99.90;;;;;;7375747;19;20529;-69
2023/08/17 00:48:28;;;;;;;6.90;3.15;;;16.20;99.90;;;;;;7370871;19;20026;-68
2023/08/17 00:50:57;;;;;;;5.38;2.72;;;16.20;99.90;;;;;;7373121;19;20022;-69
2023/08/17 00:53:27;;;;;;;7.97;3.25;;;16.10;99.90;;;;;;7371580;19;20513;-68
2023/08/17 00:55:54;;;;;;;7.82;3.25;;;16.00;99.90;;;;;;7376621;19;20018;-68
2023/08/17 00:58:21;;;;;;;7.15;3.42;;;16.00;99.90;;;;;;7372284;19;20033;-69
2023/08/17 01:00:48;;;;;;;12.18;3.67;;;16.00;99.90;;;;;;7382601;19;20014;-68
2023/08/17 01:03:16;;;;;;;7.47;3.17;;;15.90;99.90;;;;;;7385492;19;20623;-58
2023/08/17 01:05:43;;;;;;;9.35;3.70;;;15.90;99.90;;;;;;7391214;19;20043;-59
2023/08/17 01:08:10;;;;;;;7.75;2.85;;;15.90;99.90;;;;;;7383441;19;20018;-58
2023/08/17 01:11:49;;;;;;;9.07;3.13;;;15.90;99.90;;;;;;7383704;19;20017;-58
2023/08/17 01:14:29;;;;;;;10.30;3.65;;;15.90;99.90;;;;;;7378456;19;20341;-58
2023/08/17 01:17:11;;;;;;;8.70;3.33;;;15.90;99.90;;;;;;7380017;19;20034;-58
2023/08/17 01:19:38;;;;;;;5.72;3.33;;;15.90;99.90;;;;;;7382708;19;20576;-59
2023/08/17 01:22:08;;;;;;;8.77;3.13;;;15.90;99.90;;;;;;7383662;19;20019;-58
2023/08/17 01:24:34;;;;;;;9.50;3.63;;;15.90;99.90;;;;;;7383509;19;20600;-58
2023/08/17 01:27:00;;;;;;;8.05;3.35;;;15.90;99.90;;;;;;7382419;19;20058;-58
2023/08/17 01:29:27;;;;;;;9.68;3.42;;;15.90;99.90;;;;;;7383441;19;20021;-58
2023/08/17 01:32:04;;;;;;;8.23;3.38;;;15.80;99.90;;;;;;7384869;19;20536;-58
2023/08/17 01:34:39;;;;;;;7.10;3.40;;;15.80;99.90;;;;;;7386793;19;20086;-58
2023/08/17 01:37:09;;;;;;;8.13;3.58;;;15.90;99.90;;;;;;7382891;19;20018;-68
2023/08/17 01:39:43;;;;;;;8.00;3.60;;;15.80;99.90;;;;;;7385600;19;20098;-68
2023/08/17 01:42:12;;;;;;;8.85;3.45;;;15.80;99.90;;;;;;7383031;19;20021;-69
2023/08/17 01:44:39;;;;;;;7.40;3.80;;;15.80;99.90;;;;;;7387792;19;20041;-68
2023/08/17 01:47:05;;;;;;;8.13;3.63;;;15.70;99.90;;;;;;7382581;19;20026;-57
2023/08/17 01:49:32;;;;;;;9.02;3.70;;;15.80;99.90;;;;;;7385829;19;20078;-58
2023/08/17 01:52:00;;;;;;;7.15;3.05;;;15.70;99.90;;;;;;7383796;19;20503;-58
2023/08/17 01:54:27;;;;;;;5.53;3.55;;;15.80;99.90;;;;;;7385637;19;20024;-58
2023/08/17 01:56:53;;;;;;;8.93;3.47;;;15.70;99.90;;;;;;7381680;19;20469;-57
2023/08/17 01:59:20;;;;;;;7.85;3.35;;;15.80;99.90;;;;;;7380651;19;20094;-58
2023/08/17 02:01:49;;;;;;;9.95;3.85;;;15.80;99.90;;;;;;7381344;19;20018;-58
2023/08/17 02:04:15;;;;;;;5.68;3.03;;;15.80;99.90;;;;;;7380848;19;20026;-68
2023/08/17 02:06:41;;;;;;;8.02;3.05;;;15.80;99.90;;;;;;7383716;19;20043;-69
2023/08/17 02:09:08;;;;;;;6.50;3.22;;;15.90;99.90;;;;;;7379694;19;20019;-69
2023/08/17 02:11:35;;;;;;;5.70;2.75;;;15.90;99.90;;;;;;7375479;19;20127;-58
2023/08/17 02:14:01;;;;;;;8.63;3.13;;;15.90;99.90;;;;;;7370803;19;20497;-58
2023/08/17 02:16:27;;;;;;;6.32;3.15;;;15.90;99.90;;;;;;7374952;19;20389;-58
2023/08/17 02:18:54;;;;;;;6.97;2.97;;;15.90;99.90;;;;;;7374295;19;20041;-58
2023/08/17 02:21:20;;;;;;;9.80;3.10;;;15.90;99.90;;;;;;7373781;19;20453;-58
2023/08/17 02:23:46;;;;;;;7.22;2.95;;;15.90;99.90;;;;;;7373737;19;20018;-58
2023/08/17 02:26:13;;;;;;;5.95;3.08;;;15.80;99.90;;;;;;7374216;19;20085;-58
2023/08/17 02:28:39;;;;;;;5.80;3.47;;;15.80;99.90;;;;;;7373280;19;20082;-69
2023/08/17 02:31:06;;;;;;;5.72;2.95;;;15.80;99.90;;;;;;7372284;19;20091;-68
2023/08/17 02:33:33;;;;;;;8.50;2.83;;;15.80;99.90;;;;;;7374486;19;20119;-68
2023/08/17 02:36:01;;;;;;;7.93;3.50;;;15.80;99.90;;;;;;7365261;19;20030;-68
2023/08/17 02:38:27;;;;;;;10.00;3.40;;;15.80;99.90;;;;;;7372758;19;20591;-58
2023/08/17 02:40:53;;;;;;;5.65;3.20;;;15.80;99.90;;;;;;7373746;19;20678;-58
2023/08/17 02:43:19;;;;;;;7.00;2.85;;;15.80;99.90;;;;;;7371764;19;20521;-58
2023/08/17 02:45:46;;;;;;;8.48;3.75;;;15.90;99.90;;;;;;7369505;19;20564;-58
2023/08/17 02:48:12;;;;;;;6.68;3.35;;;15.90;99.90;;;;;;7368855;19;20039;-59
2023/08/17 02:50:39;;;;;;;9.93;3.08;;;15.90;99.90;;;;;;7369107;19;20022;-68
2023/08/17 02:53:05;;;;;;;4.97;3.05;;;16.00;99.90;;;;;;7369252;19;20021;-58
2023/08/17 02:55:32;;;;;;;7.22;3.20;;;16.00;99.90;;;;;;7373485;19;20073;-69
2023/08/17 02:57:58;;;;;;;6.40;2.55;;;16.00;99.90;;;;;;7372875;19;20054;-68
2023/08/17 03:00:25;;;;;;;7.22;3.38;;;16.00;99.90;;;;;;7367610;19;20011;-68
2023/08/17 03:02:52;;;;;;;9.23;3.92;;;16.10;99.90;;;;;;7372990;19;20026;-68
2023/08/17 03:05:19;;;;;;;5.07;2.85;;;16.00;99.90;;;;;;7371037;19;20018;-58
2023/08/17 03:07:45;;;;;;;6.93;3.22;;;16.10;99.90;;;;;;7373552;19;20032;-68
2023/08/17 03:10:11;;;;;;;8.45;3.72;;;16.10;99.90;;;;;;7371047;19;20030;-58
2023/08/17 03:12:38;;;;;;;6.95;3.08;;;16.00;99.90;;;;;;7376377;19;20021;-57
2023/08/17 03:15:06;;;;;;;7.03;2.85;;;16.10;99.90;;;;;;7372791;19;20090;-68
2023/08/17 03:17:33;;;;;;;6.05;3.10;;;16.10;99.90;;;;;;7373833;19;20386;-58
2023/08/17 03:20:00;;;;;;;7.03;3.28;;;16.00;99.90;;;;;;7369598;19;20042;-57
2023/08/17 03:22:26;;;;;;;7.13;3.83;;;16.00;99.90;;;;;;7371511;19;20112;-57
2023/08/17 03:24:55;;;;;;;10.63;4.00;;;16.10;99.90;;;;;;7370720;19;20056;-68
2023/08/17 03:27:22;;;;;;;8.43;3.90;;;16.00;99.90;;;;;;7370777;19;20399;-68
2023/08/17 03:29:48;;;;;;;8.23;3.85;;;15.90;99.90;;;;;;7374071;19;20022;-68
2023/08/17 03:32:14;;;;;;;9.80;3.20;;;15.90;99.90;;;;;;7367654;19;20041;-68
2023/08/17 03:34:40;;;;;;;7.63;3.60;;;15.90;99.90;;;;;;7371385;19;20022;-58
2023/08/17 03:37:07;;;;;;;8.93;3.45;;;15.90;99.90;;;;;;7370571;19;21035;-58
2023/08/17 03:39:33;;;;;;;7.40;3.67;;;15.90;99.90;;;;;;7367340;19;20273;-58
2023/08/17 03:42:00;;;;;;;8.32;3.75;;;15.80;99.90;;;;;;7372433;19;20010;-58
2023/08/17 03:44:26;;;;;;;8.15;4.32;;;15.80;99.90;;;;;;7372106;19;20047;-58
2023/08/17 03:46:52;;;;;;;7.07;3.92;;;15.80;99.90;;;;;;7372744;19;20015;-58
2023/08/17 03:49:18;;;;;;;11.18;4.55;;;15.90;99.90;;;;;;7369236;19;20383;-58
2023/08/17 03:51:45;;;;;;;9.73;4.47;;;15.90;99.90;;;;;;7372468;19;20096;-57
2023/08/17 03:54:12;;;;;;;7.40;4.18;;;15.90;99.90;;;;;;7371905;19;20508;-58
2023/08/17 03:56:39;;;;;;;11.13;5.10;;;15.90;99.90;;;;;;7370994;19;20024;-57
2023/08/17 03:59:05;;;;;;;7.95;4.22;;;15.80;99.90;;;;;;7368207;19;20376;-58
2023/08/17 04:01:31;;;;;;;9.38;4.03;;;15.90;99.90;;;;;;7372920;19;20051;-58
2023/08/17 04:03:58;;;;;;;9.38;4.13;;;15.90;99.90;;;;;;7372143;19;20022;-58
2023/08/17 04:06:24;;;;;;;6.15;4.43;;;15.90;99.90;;;;;;7368926;19;20402;-58
2023/08/17 04:08:50;;;;;;;8.02;4.18;;;15.90;99.90;;;;;;7372416;19;20698;-58
2023/08/17 04:11:16;;;;;;;10.30;4.70;;;15.90;99.90;;;;;;7369371;19;20572;-58
2023/08/17 04:13:43;;;;;;;8.45;4.30;;;15.90;99.90;;;;;;7370786;19;20362;-58
2023/08/17 04:16:09;;;;;;;8.13;4.82;;;15.90;99.90;;;;;;7371140;19;20023;-57
2023/08/17 04:18:35;;;;;;;8.75;4.55;;;15.90;99.90;;;;;;7374062;19;20022;-58
2023/08/17 04:21:02;;;;;;;10.23;4.60;;;15.90;99.90;;;;;;7371545;19;20450;-58
2023/08/17 04:23:28;;;;;;;10.10;4.20;;;15.90;99.90;;;;;;7373422;19;20580;-58
2023/08/17 04:25:55;;;;;;;8.65;4.60;;;15.90;99.90;;;;;;7370817;19;20039;-67
2023/08/17 04:28:21;;;;;;;7.13;4.60;;;15.90;99.90;;;;;;7367329;19;20112;-58
2023/08/17 04:30:47;;;;;;;7.72;4.45;;;15.90;99.90;;;;;;7370269;19;20411;-58
2023/08/17 04:33:14;;;;;;;8.32;4.43;;;16.00;99.90;;;;;;7370404;19;20025;-58
2023/08/17 04:35:40;;;;;;;7.50;4.63;;;15.90;99.90;;;;;;7366128;19;20022;-57
2023/08/17 04:38:07;;;;;;;6.95;4.00;;;16.00;99.90;;;;;;7369767;19;20358;-58
2023/08/17 04:40:33;;;;;;;8.70;4.32;;;16.00;99.90;;;;;;7366811;19;20022;-58
2023/08/17 04:43:00;;;;;;;7.95;4.40;;;15.90;99.90;;;;;;7366191;19;20403;-68
2023/08/17 04:45:27;;;;;;;12.00;4.78;;;15.90;99.90;;;;;;7370751;19;20580;-68
2023/08/17 04:47:53;;;;;;;8.27;3.92;;;16.00;99.90;;;;;;7370153;19;20042;-68
2023/08/17 04:50:20;;;;;;;8.82;4.65;;;16.00;99.90;;;;;;7370064;19;20478;-68
2023/08/17 04:52:46;;;;;;;9.35;4.65;;;16.00;99.90;;;;;;7367849;19;20030;-68
2023/08/17 04:55:14;;;;;;;8.85;4.32;;;16.00;99.90;;;;;;7367260;19;20016;-59
2023/08/17 04:57:43;;;;;;;9.77;4.07;;;16.00;99.90;;;;;;7367920;19;20418;-58
2023/08/17 05:00:12;;;;;;;7.97;4.38;;;15.90;99.90;;;;;;7365993;19;20117;-58
2023/08/17 05:02:39;;;;;;;10.98;4.85;;;16.00;99.90;;;;;;7367694;19;20493;-58
2023/08/17 05:05:09;;;;;;;9.02;4.15;;;16.00;99.90;;;;;;7369407;19;20387;-58
2023/08/17 05:07:36;;;;;;;7.35;3.72;;;16.00;99.90;;;;;;7369900;19;20025;-58
2023/08/17 05:10:02;;;;;;;14.55;3.95;;;16.00;99.90;;;;;;7370487;19;20379;-58
2023/08/17 05:12:30;;;;;;;12.38;4.50;;;16.00;99.90;;;;;;7367000;19;20447;-58
2023/08/17 05:14:57;;;;;;;9.32;4.13;;;16.10;99.90;;;;;;7367784;19;20018;-59
2023/08/17 05:17:24;;;;;;;6.22;3.80;;;16.10;99.90;;;;;;7368471;19;20029;-57
2023/08/17 05:19:51;;;;;;;9.50;3.90;;;16.10;99.90;;;;;;7361301;19;20486;-58
2023/08/17 05:22:18;;;;;;;8.05;3.90;;;16.20;99.90;;;;;;7365602;19;20026;-58
2023/08/17 05:24:44;;;;;;;11.82;4.97;;;16.20;99.90;;;;;;7365986;19;20642;-58
2023/08/17 05:27:11;;;;;;;10.07;5.20;;;16.20;99.90;;;;;;7367678;19;20033;-57
2023/08/17 05:29:37;;;;;;;8.57;5.68;;;16.30;99.90;;;;;;7364947;19;20018;-57
2023/08/17 05:32:04;;;;;;;7.82;4.18;;;16.20;99.90;;;;;;7366195;19;20023;-57
2023/08/17 05:34:31;;;;;;;11.35;5.60;;;16.30;99.90;;;;;;7365183;19;20018;-58
2023/08/17 05:36:58;;;;;;;9.93;4.68;;;16.30;99.90;;;;;;7370252;19;20022;-57
2023/08/17 05:39:24;;;;;;;6.72;4.45;;;16.30;99.90;;;;;;7367327;19;20023;-58
2023/08/17 05:41:50;;;;;;;6.65;3.60;;;16.30;99.90;;;;;;7370702;19;20789;-58
2023/08/17 05:44:17;;;;;;;7.18;4.00;;;16.30;99.90;;;;;;7367112;19;20024;-59
2023/08/17 05:46:44;;;;;;;9.30;4.95;;;16.30;99.90;;;;;;7370834;19;20573;-64
2023/08/17 05:49:10;;;;;;;9.63;4.20;;;16.30;99.90;;;;;;7376817;19;20146;-67
2023/08/17 05:51:36;;;;;;;10.02;3.90;;;16.40;99.90;;;;;;7374734;19;20023;-68
2023/08/17 05:54:03;;;;;;;14.50;4.80;;;16.40;99.90;;;;;;7372625;19;20422;-68
2023/08/17 05:56:31;;;;;;;9.20;4.20;;;16.40;99.90;;;;;;7373690;19;20366;-67
2023/08/17 05:58:58;;;;;;;12.45;6.07;;;16.50;99.90;;;;;;7375756;19;20428;-67
2023/08/17 06:01:25;;;;;;;8.90;3.97;;;16.60;99.90;;;;;;7373631;19;20025;-67
2023/08/17 06:03:52;;;;;;;9.32;3.97;;;16.60;99.90;;;;;;7373151;19;20452;-68
2023/08/17 06:06:18;;;;;;;8.45;4.68;;;16.60;99.90;;;;;;7373469;19;20482;-66
2023/08/17 06:08:44;;;;;;;13.00;8.55;;;16.70;99.90;;;;;;7372026;19;20015;-66
2023/08/17 06:11:11;;;;;;;11.45;5.50;;;16.80;99.90;;;;;;7369999;19;20014;-58
2023/08/17 06:13:37;;;;;;;10.48;7.85;;;16.80;99.90;;;;;;7375409;19;20022;-58
2023/08/17 06:16:03;;;;;;;8.55;4.90;;;16.80;99.90;;;;;;7375722;19;20018;-67
2023/08/17 06:18:30;;;;;;;8.55;3.67;;;16.90;99.90;;;;;;7373311;19;20026;-67
2023/08/17 06:20:57;;;;;;;8.88;3.20;;;16.90;99.90;;;;;;7376090;19;20011;-67
2023/08/17 06:23:24;;;;;;;8.13;3.15;;;16.90;99.90;;;;;;7374410;19;20022;-67
2023/08/17 06:25:50;;;;;;;10.00;5.43;;;17.00;99.90;;;;;;7375531;19;20022;-68
2023/08/17 06:28:16;;;;;;;7.65;3.30;;;17.00;99.90;;;;;;7371594;19;20035;-67
2023/08/17 06:30:42;;;;;;;7.75;3.05;;;17.10;99.90;;;;;;7375384;19;20490;-68
2023/08/17 06:33:09;;;;;;;6.80;2.50;;;17.10;99.90;;;;;;7373676;19;20109;-69
2023/08/17 06:35:35;;;;;;;8.95;2.90;;;17.20;99.90;;;;;;7374528;19;20334;-69
2023/08/17 06:38:02;;;;;;;13.38;8.77;;;17.30;99.90;;;;;;7373300;19;20022;-69
2023/08/17 06:40:28;;;;;;;8.00;3.42;;;17.40;99.90;;;;;;7371419;19;20489;-67
2023/08/17 06:42:55;;;;;;;6.88;2.60;;;17.60;99.90;;;;;;7371466;19;20469;-67
2023/08/17 06:45:22;;;;;;;10.00;4.43;;;17.70;99.90;;;;;;7369019;19;20018;-67
2023/08/17 06:47:48;;;;;;;10.10;6.25;;;17.90;99.90;;;;;;7373171;19;20050;-67
2023/08/17 06:50:14;;;;;;;13.27;4.90;;;18.00;99.90;;;;;;7371189;19;20018;-67
2023/08/17 06:52:41;;;;;;;8.85;5.32;;;18.20;99.90;;;;;;7372162;19;20019;-67
2023/08/17 06:55:08;;;;;;;6.75;2.45;;;18.20;99.90;;;;;;7372798;19;20038;-66
2023/08/17 06:57:34;;;;;;;7.18;3.65;;;18.40;99.90;;;;;;7372698;19;20022;-57
2023/08/17 07:00:01;;;;;;;16.83;11.40;;;18.40;99.90;;;;;;7371584;19;20014;-58
2023/08/17 07:02:28;;;;;;;6.15;2.22;;;18.40;99.90;;;;;;7371821;19;20396;-65
2023/08/17 07:04:55;;;;;;;9.75;6.25;;;18.40;99.90;;;;;;7373192;19;20078;-67
2023/08/17 07:07:21;;;;;;;10.38;2.63;;;18.50;99.90;;;;;;7368813;19;21538;-67
2023/08/17 07:09:47;;;;;;;10.55;6.20;;;18.40;99.90;;;;;;7370737;19;20107;-67
2023/08/17 07:12:13;;;;;;;9.40;5.22;;;18.40;99.90;;;;;;7368405;19;20142;-67
2023/08/17 07:14:39;;;;;;;11.23;8.10;;;18.40;99.90;;;;;;7372044;19;20051;-67
2023/08/17 07:17:06;;;;;;;12.48;8.48;;;18.40;99.90;;;;;;7369943;19;20068;-67
2023/08/17 07:19:32;;;;;;;9.60;4.80;;;18.40;99.90;;;;;;7372764;19;20019;-65
2023/08/17 07:21:58;;;;;;;9.68;5.82;;;18.40;99.90;;;;;;7370155;19;20553;-57
2023/08/17 07:24:24;;;;;;;7.35;3.03;;;18.30;99.90;;;;;;7370128;19;20019;-57
2023/08/17 07:26:50;;;;;;;5.22;1.73;;;18.30;99.90;;;;;;7371431;19;20498;-57
2023/08/17 07:29:17;;;;;;;6.00;3.75;;;18.30;99.90;;;;;;7373684;19;20569;-65
2023/08/17 07:31:43;;;;;;;111.82;99.97;;;18.40;99.90;;;;;;7369860;19;20074;-60
2023/08/17 07:34:10;;;;;;;65.30;58.75;;;18.60;99.90;;;;;;7366433;19;20018;-62
2023/08/17 07:36:36;;;;;;;18.73;15.77;;;18.80;99.90;;;;;;7368585;19;20026;-61
2023/08/17 07:39:02;;;;;;;65.80;58.97;;;18.80;99.90;;;;;;7373387;19;20035;-62
2023/08/17 07:41:28;;;;;;;21.35;17.13;;;18.90;99.90;;;;;;7369821;19;20021;-62
2023/08/17 07:43:55;;;;;;;30.02;22.13;;;19.00;99.90;;;;;;7369986;19;20500;-61
2023/08/17 07:46:21;;;;;;;19.02;16.45;;;19.00;99.90;;;;;;7371788;19;20014;-61
2023/08/17 07:48:47;;;;;;;7.47;3.60;;;19.10;99.90;;;;;;7370586;19;20014;-61
2023/08/17 07:51:14;;;;;;;13.07;10.00;;;19.30;99.90;;;;;;7370208;19;20023;-61
2023/08/17 07:53:40;;;;;;;5.53;3.08;;;19.70;99.90;;;;;;7371516;19;20018;-61
2023/08/17 07:56:06;;;;;;;7.78;3.88;;;20.00;99.90;;;;;;7368965;19;20037;-61
2023/08/17 07:58:32;;;;;;;4.55;1.60;;;20.60;99.90;;;;;;7368843;19;20493;-61
2023/08/17 08:01:00;;;;;;;5.97;1.40;;;20.50;99.90;;;;;;7374140;19;20112;-61
2023/08/17 08:03:26;;;;;;;4.72;1.30;;;20.50;99.90;;;;;;7368395;19;20014;-61
2023/08/17 08:05:52;;;;;;;5.25;3.05;;;20.60;99.90;;;;;;7370700;19;20494;-61
2023/08/17 08:08:19;;;;;;;9.27;4.43;;;20.30;99.90;;;;;;7369680;19;20037;-57
2023/08/17 08:10:46;;;;;;;74.30;66.35;;;20.20;99.90;;;;;;7368567;19;20407;-61
2023/08/17 08:13:12;;;;;;;96.60;86.45;;;20.20;99.90;;;;;;7370820;19;20873;-60
2023/08/17 08:15:38;;;;;;;18.08;12.88;;;20.20;99.90;;;;;;7368095;19;20010;-60
2023/08/17 08:18:04;;;;;;;13.20;10.65;;;20.20;99.90;;;;;;7372013;19;20322;-61
2023/08/17 08:20:31;;;;;;;21.83;16.23;;;20.20;99.90;;;;;;7373954;19;20053;-60
2023/08/17 08:22:57;;;;;;;21.88;15.05;;;20.30;99.90;;;;;;7373040;19;20521;-61
2023/08/17 08:25:23;;;;;;;9.45;6.35;;;20.40;99.90;;;;;;7369394;19;20574;-61
2023/08/17 08:27:49;;;;;;;10.63;6.25;;;20.30;99.90;;;;;;7371253;19;20029;-61
2023/08/17 08:30:18;;;;;;;13.38;9.10;;;20.40;99.90;;;;;;7370221;19;20026;-60
2023/08/17 08:32:44;;;;;;;10.10;4.88;;;20.50;99.90;;;;;;7370485;19;20440;-61
2023/08/17 08:35:10;;;;;;;7.00;3.28;;;20.40;99.90;;;;;;7369962;19;20018;-60
2023/08/17 08:37:36;;;;;;;10.23;5.13;;;20.50;99.90;;;;;;7370524;19;20173;-60
2023/08/17 08:40:04;;;;;;;7.97;5.35;;;20.50;99.90;;;;;;7366926;19;20490;-60
2023/08/17 08:42:30;;;;;;;8.65;4.22;;;20.40;99.90;;;;;;7366475;19;20018;-61
2023/08/17 08:44:56;;;;;;;6.65;3.38;;;20.30;99.90;;;;;;7370560;19;20019;-60
2023/08/17 08:47:25;;;;;;;8.02;3.95;;;20.40;99.90;;;;;;7370032;19;21139;-60
2023/08/17 08:50:02;;;;;;;5.82;3.00;;;20.60;99.90;;;;;;7370908;19;20015;-60
2023/08/17 08:52:44;;;;;;;6.45;1.70;;;20.60;99.90;;;;;;7369337;19;20015;-61
2023/08/17 08:55:23;;;;;;;3.72;1.80;;;20.60;99.90;;;;;;7371724;19;20074;-60
2023/08/17 08:57:49;;;;;;;8.05;3.70;;;20.60;99.90;;;;;;7367185;19;20022;-65
2023/08/17 09:00:16;;;;;;;5.25;2.42;;;20.70;99.90;;;;;;7372108;19;20037;-65
2023/08/17 09:02:44;;;;;;;4.05;1.60;;;20.60;99.90;;;;;;7373590;19;20649;-69
2023/08/17 09:05:11;;;;;;;6.20;2.40;;;20.50;99.90;;;;;;7370429;19;20037;-65
2023/08/17 09:07:41;;;;;;;13.18;9.68;;;20.60;99.90;;;;;;7366979;19;20025;-67
2023/08/17 09:10:09;;;;;;;6.95;5.18;;;20.60;99.90;;;;;;7371391;19;20339;-66
2023/08/17 09:12:35;;;;;;;6.50;3.20;;;20.60;99.90;;;;;;7370541;19;20026;-67
2023/08/17 09:15:01;;;;;;;7.68;3.65;;;20.60;99.90;;;;;;7369196;19;20481;-67
2023/08/17 09:17:34;;;;;;;16.45;4.25;;;20.70;99.90;;;;;;7371400;19;20578;-68
2023/08/17 09:20:00;;;;;;;30.35;6.78;;;20.60;99.90;;;;;;7369505;19;20025;-67
2023/08/17 09:22:43;;;;;;;13.50;12.00;;;20.50;99.90;;;;;;7378833;19;20377;-66
2023/08/17 09:25:10;;;;;;;6.65;3.08;;;20.30;99.90;;;;;;7376418;19;20517;-66
2023/08/17 09:27:38;;;;;;;10.38;3.58;;;20.20;99.90;;;;;;7378797;19;20350;-68
2023/08/17 09:30:06;;;;;;;5.53;2.67;;;20.20;99.90;;;;;;7378129;19;20022;-67
2023/08/17 09:32:33;;;;;;;7.25;2.65;;;20.20;99.90;;;;;;7378262;19;20048;-67
2023/08/17 09:35:06;;;;;;;7.82;3.45;;;20.10;99.90;;;;;;7377881;19;20011;-67
2023/08/17 09:37:33;;;;;;;5.22;2.63;;;20.10;99.90;;;;;;7375377;19;20022;-59
2023/08/17 09:40:00;;;;;;;4.22;1.67;;;20.10;99.90;;;;;;7375669;19;20022;-59
2023/08/17 09:42:27;;;;;;;5.13;2.30;;;20.20;99.90;;;;;;7377304;19;20502;-59
2023/08/17 09:44:55;;;;;;;4.93;2.20;;;20.30;99.90;;;;;;7379512;19;20600;-59
2023/08/17 09:47:22;;;;;;;51.22;45.67;;;20.30;99.90;;;;;;7377499;19;20011;-60
2023/08/17 09:49:50;;;;;;;16.25;14.15;;;20.30;99.90;;;;;;7379897;19;20018;-64
2023/08/17 09:52:16;;;;;;;22.38;16.83;;;20.20;99.90;;;;;;7378767;19;20018;-65
2023/08/17 09:54:45;;;;;;;24.90;21.75;;;20.30;99.90;;;;;;7375839;19;20358;-65
2023/08/17 09:57:12;;;;;;;20.08;16.70;;;20.30;99.90;;;;;;7374600;19;20039;-60
2023/08/17 09:59:39;;;;;;;16.90;12.80;;;20.40;99.90;;;;;;7374180;19;20570;-60
2023/08/17 10:02:21;;;;;;;5.65;3.88;;;20.50;99.90;;;;;;7374550;19;20037;-59
2023/08/17 10:04:53;;;;;;;7.45;3.85;;;20.50;99.90;;;;;;7377769;19;20535;-59
2023/08/17 10:07:21;;;;;;;6.97;4.03;;;20.60;99.90;;;;;;7374996;19;20399;-60
2023/08/17 10:10:05;;;;;;;6.53;3.00;;;20.70;99.90;;;;;;7372804;19;20047;-60
2023/08/17 10:12:48;;;;;;;6.00;3.08;;;20.70;99.90;;;;;;7371427;19;20014;-59
2023/08/17 10:15:17;;;;;;;6.85;2.85;;;20.70;99.90;;;;;;7374956;19;20030;-60
2023/08/17 10:17:52;;;;;;;5.50;1.63;;;20.60;99.90;;;;;;7375161;19;20058;-60
2023/08/17 10:20:19;;;;;;;5.50;1.85;;;20.50;99.90;;;;;;7375415;19;20022;-60
2023/08/17 10:23:04;;;;;;;7.82;2.00;;;20.50;99.90;;;;;;7378013;19;20050;-60
2023/08/17 10:25:31;;;;;;;5.25;2.13;;;20.50;99.90;;;;;;7375967;19;20608;-59
2023/08/17 10:28:00;;;;;;;4.25;1.83;;;20.60;99.90;;;;;;7379894;19;20033;-64
2023/08/17 10:30:27;;;;;;;6.55;2.30;;;20.60;99.90;;;;;;7377171;19;20049;-59
2023/08/17 10:32:53;;;;;;;3.55;1.55;;;20.60;99.90;;;;;;7373176;19;20094;-59
2023/08/17 10:35:20;;;;;;;6.10;2.33;;;20.70;99.90;;;;;;7374715;19;20025;-67
2023/08/17 10:37:47;;;;;;;44.22;36.70;;;20.70;99.90;;;;;;7375008;19;20391;-67
2023/08/17 10:40:14;;;;;;;9.10;5.55;;;20.80;99.90;;;;;;7375270;19;20081;-67
2023/08/17 10:42:40;;;;;;;34.08;29.48;;;20.80;99.90;;;;;;7379793;19;20032;-66
2023/08/17 10:45:21;;;;;;;19.50;16.08;;;20.60;99.90;;;;;;7373639;19;20602;-67
2023/08/17 10:47:48;;;;;;;16.17;11.75;;;20.50;99.90;;;;;;7376424;19;20014;-67
2023/08/17 10:50:24;;;;;;;13.70;9.98;;;20.60;99.90;;;;;;7376435;19;20022;-67
2023/08/17 10:52:53;;;;;;;6.57;4.63;;;20.70;99.90;;;;;;7376523;19;20510;-67
2023/08/17 10:55:36;;;;;;;6.45;3.92;;;20.70;99.90;;;;;;7373498;19;20025;-67
2023/08/17 10:58:02;;;;;;;4.90;2.60;;;20.80;99.90;;;;;;7376986;19;20038;-61
2023/08/17 11:00:39;;;;;;;11.00;5.50;;;21.00;99.90;;;;;;7371004;19;20015;-60
2023/08/17 11:03:16;;;;;;;76.93;69.10;;;21.10;99.90;;;;;;7375572;19;20474;-61
2023/08/17 11:05:58;;;;;;;18.17;13.18;;;21.30;99.90;;;;;;7374695;19;20410;-66
2023/08/17 11:08:31;;;;;;;10.95;8.70;;;21.40;99.90;;;;;;7372969;19;20056;-66
2023/08/17 11:11:11;;;;;;;17.02;13.27;;;21.30;99.90;;;;;;7375355;19;20018;-66
2023/08/17 11:13:39;;;;;;;7.30;3.28;;;21.30;99.90;;;;;;7372918;19;20018;-66
2023/08/17 11:16:07;;;;;;;19.25;15.10;;;21.30;99.90;;;;;;7376817;19;20018;-66
2023/08/17 11:18:34;;;;;;;9.40;7.93;;;21.10;99.90;;;;;;7370578;19;20019;-66
2023/08/17 11:21:03;;;;;;;6.90;5.07;;;21.10;99.90;;;;;;7374040;19;20098;-66
2023/08/17 11:23:30;;;;;;;6.43;5.80;;;20.90;99.90;;;;;;7371891;19;20022;-66
2023/08/17 11:25:57;;;;;;;5.00;2.80;;;21.00;99.90;;;;;;7371350;19;20050;-66
2023/08/17 11:28:24;;;;;;;9.30;5.93;;;21.10;99.90;;;;;;7375267;19;20032;-66
2023/08/17 11:31:01;;;;;;;6.13;3.35;;;21.40;99.90;;;;;;7371565;19;20358;-66
2023/08/17 11:33:30;;;;;;;8.88;7.53;;;21.40;99.90;;;;;;7371433;19;20492;-66
2023/08/17 11:36:02;;;;;;;8.75;5.88;;;21.40;99.90;;;;;;7369380;19;21238;-66
2023/08/17 11:38:33;;;;;;;35.08;31.35;;;21.50;99.90;;;;;;7373101;19;20025;-66
2023/08/17 11:41:00;;;;;;;11.88;8.43;;;21.60;99.90;;;;;;7372427;19;20121;-66
2023/08/17 11:43:28;;;;;;;8.45;5.88;;;21.70;99.90;;;;;;7371560;19;20368;-66
2023/08/17 11:45:57;;;;;;;5.80;4.15;;;21.70;99.90;;;;;;7375249;19;20137;-67
2023/08/17 11:48:25;;;;;;;16.13;13.45;;;21.80;99.90;;;;;;7364393;19;20093;-59
2023/08/17 11:50:53;;;;;;;12.70;10.50;;;21.80;99.90;;;;;;7374388;19;20015;-59
2023/08/17 11:53:19;;;;;;;7.63;5.55;;;21.70;99.90;;;;;;7371267;19;20023;-59
2023/08/17 11:55:45;;;;;;;32.67;29.20;;;21.60;99.90;;;;;;7369294;19;20511;-70
2023/08/17 11:58:11;;;;;;;17.60;14.32;;;21.50;99.90;;;;;;7366846;19;20019;-67
2023/08/17 12:00:44;;;;;;;64.80;58.30;;;21.40;99.90;;;;;;7369640;19;20050;-67
2023/08/17 12:03:15;;;;;;;21.63;18.52;;;21.50;99.90;;;;;;7372732;19;20082;-67
2023/08/17 12:05:43;;;;;;;;;;;21.50;99.90;;;;;;7374542;19;20029;-67
2023/08/17 12:08:10;;;;;;;15.02;13.15;;;21.50;99.90;;;;;;7368549;19;19919;-60
2023/08/17 12:10:38;;;;;;;11.45;7.95;;;21.50;99.90;;;;;;7371214;19;20503;-67
2023/08/17 12:13:05;;;;;;;15.10;13.13;;;21.40;99.90;;;;;;7373727;19;20029;-59
2023/08/17 12:15:32;;;;;;;13.35;9.52;;;21.40;99.90;;;;;;7368459;19;20014;-67
2023/08/17 12:18:02;;;;;;;7.35;5.32;;;21.40;99.90;;;;;;7369591;19;20018;-69
2023/08/17 12:20:29;;;;;;;24.33;21.67;;;21.30;99.90;;;;;;7369698;19;20026;-70
2023/08/17 12:22:59;;;;;;;134.93;120.57;;;21.20;99.90;;;;;;7374120;19;20022;-67
2023/08/17 12:25:26;;;;;;;21.58;19.00;;;21.30;99.90;;;;;;7369200;19;20046;-67
2023/08/17 12:27:53;;;;;;;5.88;3.53;;;21.30;99.90;;;;;;7371994;19;20019;-67
2023/08/17 12:30:28;;;;;;;17.92;13.82;;;21.30;99.90;;;;;;7371229;19;20022;-67
2023/08/17 12:32:54;;;;;;;15.05;13.00;;;21.30;99.90;;;;;;7372302;19;20030;-67
2023/08/17 12:35:23;;;;;;;30.48;25.67;;;21.20;99.90;;;;;;7365825;19;20104;-67
2023/08/17 12:37:50;;;;;;;7.85;4.95;;;21.30;99.90;;;;;;7370991;19;20489;-67
2023/08/17 12:40:16;;;;;;;7.30;4.00;;;21.30;99.90;;;;;;7365961;19;20486;-67
2023/08/17 12:42:43;;;;;;;11.45;8.98;;;21.40;99.90;;;;;;7372692;19;20022;-67
2023/08/17 12:45:09;;;;;;;6.68;4.18;;;21.40;99.90;;;;;;7367313;19;20108;-67
2023/08/17 12:47:36;;;;;;;9.05;6.25;;;21.50;99.90;;;;;;7370268;19;20018;-67